sensor_id;sensor_type;location;lat;lon;timestamp;P1;durP1;ratioP1;P2;durP2;ratioP2
17943;SDS011;9097;47.028;15.444;2024-02-21T00:01:14;4.30;;;2.60;;
17943;SDS011;9097;47.028;15.444;2024-02-21T00:04:17;7.77;;;2.67;;
17943;SDS011;9097;47.028;15.444;2024-02-21T00:07:21;5.43;;;2.40;;
17943;SDS011;9097;47.028;15.444;2024-02-21T00:10:24;4.20;;;2.30;;
17943;SDS011;9097;47.028;15.444;2024-02-21T00:13:26;4.63;;;2.60;;
17943;SDS011;9097;47.028;15.444;2024-02-21T00:16:29;5.80;;;2.83;;
17943;SDS011;9097;47.028;15.444;2024-02-21T00:19:32;6.17;;;3.07;;
17943;SDS011;9097;47.028;15.444;2024-02-21T00:22:36;6.13;;;3.47;;
17943;SDS011;9097;47.028;15.444;2024-02-21T00:25:38;12.67;;;3.63;;
17943;SDS011;9097;47.028;15.444;2024-02-21T00:28:41;8.07;;;3.63;;
17943;SDS011;9097;47.028;15.444;2024-02-21T00:31:44;6.60;;;2.57;;
17943;SDS011;9097;47.028;15.444;2024-02-21T00:34:47;2.93;;;2.00;;
17943;SDS011;9097;47.028;15.444;2024-02-21T00:37:51;10.27;;;3.87;;
17943;SDS011;9097;47.028;15.444;2024-02-21T00:40:53;9.93;;;3.83;;
17943;SDS011;9097;47.028;15.444;2024-02-21T00:43:56;8.17;;;3.97;;
17943;SDS011;9097;47.028;15.444;2024-02-21T00:46:58;6.47;;;2.93;;
17943;SDS011;9097;47.028;15.444;2024-02-21T00:50:01;7.13;;;2.63;;
17943;SDS011;9097;47.028;15.444;2024-02-21T00:53:05;4.37;;;2.73;;
17943;SDS011;9097;47.028;15.444;2024-02-21T00:56:07;3.67;;;2.30;;
17943;SDS011;9097;47.028;15.444;2024-02-21T00:59:10;8.93;;;3.63;;
17943;SDS011;9097;47.028;15.444;2024-02-21T01:02:12;3.90;;;2.30;;
17943;SDS011;9097;47.028;15.444;2024-02-21T01:05:15;7.73;;;3.27;;
17943;SDS011;9097;47.028;15.444;2024-02-21T01:08:19;5.87;;;3.43;;
17943;SDS011;9097;47.028;15.444;2024-02-21T01:11:21;6.77;;;3.70;;
17943;SDS011;9097;47.028;15.444;2024-02-21T01:14:24;5.23;;;2.53;;
17943;SDS011;9097;47.028;15.444;2024-02-21T01:17:26;5.10;;;3.53;;
17943;SDS011;9097;47.028;15.444;2024-02-21T01:20:29;7.47;;;3.50;;
17943;SDS011;9097;47.028;15.444;2024-02-21T01:23:33;4.67;;;2.73;;
17943;SDS011;9097;47.028;15.444;2024-02-21T01:26:36;6.37;;;2.80;;
17943;SDS011;9097;47.028;15.444;2024-02-21T01:29:38;8.10;;;3.07;;
17943;SDS011;9097;47.028;15.444;2024-02-21T01:32:41;7.83;;;3.57;;
17943;SDS011;9097;47.028;15.444;2024-02-21T01:35:43;5.83;;;2.83;;
17943;SDS011;9097;47.028;15.444;2024-02-21T01:38:47;4.97;;;3.07;;
17943;SDS011;9097;47.028;15.444;2024-02-21T01:41:50;8.97;;;3.50;;
17943;SDS011;9097;47.028;15.444;2024-02-21T01:44:52;8.03;;;3.33;;
17943;SDS011;9097;47.028;15.444;2024-02-21T01:47:55;7.83;;;2.67;;
17943;SDS011;9097;47.028;15.444;2024-02-21T01:50:57;4.07;;;2.90;;
17943;SDS011;9097;47.028;15.444;2024-02-21T01:54:02;8.30;;;3.70;;
17943;SDS011;9097;47.028;15.444;2024-02-21T01:57:05;7.67;;;2.50;;
17943;SDS011;9097;47.028;15.444;2024-02-21T02:00:08;5.27;;;3.60;;
17943;SDS011;9097;47.028;15.444;2024-02-21T02:03:13;4.60;;;2.40;;
17943;SDS011;9097;47.028;15.444;2024-02-21T02:06:17;9.37;;;3.10;;
17943;SDS011;9097;47.028;15.444;2024-02-21T02:09:20;5.77;;;2.77;;
17943;SDS011;9097;47.028;15.444;2024-02-21T02:12:23;6.07;;;3.00;;
17943;SDS011;9097;47.028;15.444;2024-02-21T02:15:25;4.77;;;3.93;;
17943;SDS011;9097;47.028;15.444;2024-02-21T02:18:28;4.27;;;2.27;;
17943;SDS011;9097;47.028;15.444;2024-02-21T02:21:32;4.83;;;2.90;;
17943;SDS011;9097;47.028;15.444;2024-02-21T02:24:36;5.63;;;2.10;;
17943;SDS011;9097;47.028;15.444;2024-02-21T02:27:42;4.83;;;2.40;;
17943;SDS011;9097;47.028;15.444;2024-02-21T02:30:46;4.27;;;2.30;;
17943;SDS011;9097;47.028;15.444;2024-02-21T02:33:48;5.67;;;2.90;;
17943;SDS011;9097;47.028;15.444;2024-02-21T02:36:51;4.13;;;2.23;;
17943;SDS011;9097;47.028;15.444;2024-02-21T02:39:56;5.00;;;3.10;;
17943;SDS011;9097;47.028;15.444;2024-02-21T02:42:58;5.80;;;2.20;;
17943;SDS011;9097;47.028;15.444;2024-02-21T02:46:01;6.20;;;2.63;;
17943;SDS011;9097;47.028;15.444;2024-02-21T02:49:03;4.90;;;2.73;;
17943;SDS011;9097;47.028;15.444;2024-02-21T02:52:06;4.03;;;2.10;;
17943;SDS011;9097;47.028;15.444;2024-02-21T02:55:10;9.33;;;2.77;;
17943;SDS011;9097;47.028;15.444;2024-02-21T02:58:12;5.03;;;2.67;;
17943;SDS011;9097;47.028;15.444;2024-02-21T03:01:15;5.57;;;2.33;;
17943;SDS011;9097;47.028;15.444;2024-02-21T03:04:17;3.93;;;1.87;;
17943;SDS011;9097;47.028;15.444;2024-02-21T03:07:20;8.00;;;2.77;;
17943;SDS011;9097;47.028;15.444;2024-02-21T03:10:29;4.10;;;2.40;;
17943;SDS011;9097;47.028;15.444;2024-02-21T03:13:31;5.60;;;2.43;;
17943;SDS011;9097;47.028;15.444;2024-02-21T03:16:34;3.23;;;1.97;;
17943;SDS011;9097;47.028;15.444;2024-02-21T03:19:37;6.47;;;2.13;;
17943;SDS011;9097;47.028;15.444;2024-02-21T03:22:39;3.27;;;1.57;;
17943;SDS011;9097;47.028;15.444;2024-02-21T03:25:44;2.50;;;2.10;;
17943;SDS011;9097;47.028;15.444;2024-02-21T03:28:46;6.83;;;2.07;;
17943;SDS011;9097;47.028;15.444;2024-02-21T03:31:49;2.60;;;1.40;;
17943;SDS011;9097;47.028;15.444;2024-02-21T03:34:52;1.50;;;1.13;;
17943;SDS011;9097;47.028;15.444;2024-02-21T03:37:55;2.07;;;1.10;;
17943;SDS011;9097;47.028;15.444;2024-02-21T03:40:58;1.37;;;1.27;;
17943;SDS011;9097;47.028;15.444;2024-02-21T03:44:02;2.53;;;1.30;;
17943;SDS011;9097;47.028;15.444;2024-02-21T03:47:04;2.87;;;1.00;;
17943;SDS011;9097;47.028;15.444;2024-02-21T03:50:10;1.63;;;1.27;;
17943;SDS011;9097;47.028;15.444;2024-02-21T03:53:13;3.53;;;1.20;;
17943;SDS011;9097;47.028;15.444;2024-02-21T03:56:17;2.63;;;1.20;;
17943;SDS011;9097;47.028;15.444;2024-02-21T03:59:20;3.03;;;1.93;;
17943;SDS011;9097;47.028;15.444;2024-02-21T04:02:22;1.40;;;1.10;;
17943;SDS011;9097;47.028;15.444;2024-02-21T04:05:25;5.13;;;1.47;;
17943;SDS011;9097;47.028;15.444;2024-02-21T04:08:28;2.07;;;1.27;;
17943;SDS011;9097;47.028;15.444;2024-02-21T04:11:32;2.97;;;1.57;;
17943;SDS011;9097;47.028;15.444;2024-02-21T04:14:34;2.50;;;1.60;;
17943;SDS011;9097;47.028;15.444;2024-02-21T04:17:37;3.03;;;1.53;;
17943;SDS011;9097;47.028;15.444;2024-02-21T04:20:39;2.57;;;1.40;;
17943;SDS011;9097;47.028;15.444;2024-02-21T04:23:42;1.80;;;1.43;;
17943;SDS011;9097;47.028;15.444;2024-02-21T04:26:46;4.43;;;1.77;;
17943;SDS011;9097;47.028;15.444;2024-02-21T04:29:48;4.77;;;1.60;;
17943;SDS011;9097;47.028;15.444;2024-02-21T04:32:51;5.27;;;1.83;;
17943;SDS011;9097;47.028;15.444;2024-02-21T04:35:53;3.40;;;2.10;;
17943;SDS011;9097;47.028;15.444;2024-02-21T04:38:56;3.83;;;1.83;;
17943;SDS011;9097;47.028;15.444;2024-02-21T04:42:00;2.03;;;1.43;;
17943;SDS011;9097;47.028;15.444;2024-02-21T04:45:03;2.40;;;1.40;;
17943;SDS011;9097;47.028;15.444;2024-02-21T04:48:06;4.80;;;2.17;;
17943;SDS011;9097;47.028;15.444;2024-02-21T04:51:08;6.10;;;2.37;;
17943;SDS011;9097;47.028;15.444;2024-02-21T04:54:11;3.30;;;1.70;;
17943;SDS011;9097;47.028;15.444;2024-02-21T04:57:15;4.40;;;2.37;;
17943;SDS011;9097;47.028;15.444;2024-02-21T05:00:17;6.73;;;3.17;;
17943;SDS011;9097;47.028;15.444;2024-02-21T05:03:20;5.47;;;2.97;;
17943;SDS011;9097;47.028;15.444;2024-02-21T05:06:23;6.53;;;3.30;;
17943;SDS011;9097;47.028;15.444;2024-02-21T05:09:25;4.57;;;2.67;;
17943;SDS011;9097;47.028;15.444;2024-02-21T05:12:29;6.53;;;2.60;;
17943;SDS011;9097;47.028;15.444;2024-02-21T05:15:32;5.03;;;2.40;;
17943;SDS011;9097;47.028;15.444;2024-02-21T05:18:34;7.67;;;2.10;;
17943;SDS011;9097;47.028;15.444;2024-02-21T05:21:37;5.73;;;2.70;;
17943;SDS011;9097;47.028;15.444;2024-02-21T05:24:39;6.00;;;2.90;;
17943;SDS011;9097;47.028;15.444;2024-02-21T05:27:43;5.10;;;2.27;;
17943;SDS011;9097;47.028;15.444;2024-02-21T05:30:46;7.10;;;2.60;;
17943;SDS011;9097;47.028;15.444;2024-02-21T05:33:48;4.53;;;2.27;;
17943;SDS011;9097;47.028;15.444;2024-02-21T05:36:51;9.50;;;2.33;;
17943;SDS011;9097;47.028;15.444;2024-02-21T05:39:53;4.33;;;2.37;;
17943;SDS011;9097;47.028;15.444;2024-02-21T05:42:57;3.63;;;2.50;;
17943;SDS011;9097;47.028;15.444;2024-02-21T05:46:00;5.77;;;2.33;;
17943;SDS011;9097;47.028;15.444;2024-02-21T05:49:03;4.20;;;2.80;;
17943;SDS011;9097;47.028;15.444;2024-02-21T05:52:05;12.43;;;3.93;;
17943;SDS011;9097;47.028;15.444;2024-02-21T05:55:08;6.47;;;3.27;;
17943;SDS011;9097;47.028;15.444;2024-02-21T05:58:12;3.13;;;2.00;;
17943;SDS011;9097;47.028;15.444;2024-02-21T06:01:14;5.97;;;2.40;;
17943;SDS011;9097;47.028;15.444;2024-02-21T06:04:17;7.17;;;3.27;;
17943;SDS011;9097;47.028;15.444;2024-02-21T06:07:20;6.53;;;1.70;;
17943;SDS011;9097;47.028;15.444;2024-02-21T06:10:22;3.47;;;2.30;;
17943;SDS011;9097;47.028;15.444;2024-02-21T06:13:26;8.57;;;2.70;;
17943;SDS011;9097;47.028;15.444;2024-02-21T06:16:29;2.37;;;2.03;;
17943;SDS011;9097;47.028;15.444;2024-02-21T06:19:32;3.53;;;2.13;;
17943;SDS011;9097;47.028;15.444;2024-02-21T06:22:34;3.90;;;1.80;;
17943;SDS011;9097;47.028;15.444;2024-02-21T06:25:37;3.80;;;2.00;;
17943;SDS011;9097;47.028;15.444;2024-02-21T06:28:41;5.33;;;1.90;;
17943;SDS011;9097;47.028;15.444;2024-02-21T06:31:44;3.97;;;2.37;;
17943;SDS011;9097;47.028;15.444;2024-02-21T06:34:46;6.30;;;2.73;;
17943;SDS011;9097;47.028;15.444;2024-02-21T06:37:49;10.07;;;4.13;;
17943;SDS011;9097;47.028;15.444;2024-02-21T06:40:51;9.50;;;3.63;;
17943;SDS011;9097;47.028;15.444;2024-02-21T06:43:56;8.50;;;4.43;;
17943;SDS011;9097;47.028;15.444;2024-02-21T06:46:58;6.43;;;3.80;;
17943;SDS011;9097;47.028;15.444;2024-02-21T06:50:01;7.37;;;3.77;;
17943;SDS011;9097;47.028;15.444;2024-02-21T06:53:04;12.67;;;4.80;;
17943;SDS011;9097;47.028;15.444;2024-02-21T06:56:06;6.93;;;4.47;;
17943;SDS011;9097;47.028;15.444;2024-02-21T06:59:11;17.63;;;5.10;;
17943;SDS011;9097;47.028;15.444;2024-02-21T07:02:15;5.47;;;4.37;;
17943;SDS011;9097;47.028;15.444;2024-02-21T07:05:18;8.57;;;4.00;;
17943;SDS011;9097;47.028;15.444;2024-02-21T07:08:20;7.53;;;3.17;;
17943;SDS011;9097;47.028;15.444;2024-02-21T07:11:23;5.47;;;2.97;;
17943;SDS011;9097;47.028;15.444;2024-02-21T07:14:27;4.57;;;2.53;;
17943;SDS011;9097;47.028;15.444;2024-02-21T07:17:30;8.80;;;3.43;;
17943;SDS011;9097;47.028;15.444;2024-02-21T07:20:32;6.77;;;3.20;;
17943;SDS011;9097;47.028;15.444;2024-02-21T07:23:37;4.43;;;2.83;;
17943;SDS011;9097;47.028;15.444;2024-02-21T07:26:43;5.70;;;2.60;;
17943;SDS011;9097;47.028;15.444;2024-02-21T07:29:47;5.00;;;2.60;;
17943;SDS011;9097;47.028;15.444;2024-02-21T07:32:49;5.87;;;2.87;;
17943;SDS011;9097;47.028;15.444;2024-02-21T07:35:52;4.23;;;2.27;;
17943;SDS011;9097;47.028;15.444;2024-02-21T07:38:54;7.33;;;2.87;;
17943;SDS011;9097;47.028;15.444;2024-02-21T07:41:57;3.97;;;2.67;;
17943;SDS011;9097;47.028;15.444;2024-02-21T07:45:01;5.60;;;2.70;;
17943;SDS011;9097;47.028;15.444;2024-02-21T07:48:04;5.27;;;2.60;;
17943;SDS011;9097;47.028;15.444;2024-02-21T07:51:07;4.23;;;2.47;;
17943;SDS011;9097;47.028;15.444;2024-02-21T07:54:09;3.90;;;2.83;;
17943;SDS011;9097;47.028;15.444;2024-02-21T07:57:12;3.57;;;2.57;;
17943;SDS011;9097;47.028;15.444;2024-02-21T08:00:16;4.53;;;2.37;;
17943;SDS011;9097;47.028;15.444;2024-02-21T08:03:22;5.23;;;3.67;;
17943;SDS011;9097;47.028;15.444;2024-02-21T08:06:26;2.77;;;2.07;;
17943;SDS011;9097;47.028;15.444;2024-02-21T08:09:28;6.77;;;3.20;;
17943;SDS011;9097;47.028;15.444;2024-02-21T08:12:31;4.43;;;2.30;;
17943;SDS011;9097;47.028;15.444;2024-02-21T08:15:34;4.30;;;2.67;;
17943;SDS011;9097;47.028;15.444;2024-02-21T08:18:39;4.17;;;2.17;;
17943;SDS011;9097;47.028;15.444;2024-02-21T08:21:44;1.93;;;1.07;;
17943;SDS011;9097;47.028;15.444;2024-02-21T08:24:47;2.63;;;1.80;;
17943;SDS011;9097;47.028;15.444;2024-02-21T08:27:50;4.20;;;1.90;;
17943;SDS011;9097;47.028;15.444;2024-02-21T08:30:54;1.50;;;1.20;;
17943;SDS011;9097;47.028;15.444;2024-02-21T08:33:57;2.97;;;1.50;;
17943;SDS011;9097;47.028;15.444;2024-02-21T08:37:03;2.63;;;1.80;;
17943;SDS011;9097;47.028;15.444;2024-02-21T08:40:05;4.73;;;1.63;;
17943;SDS011;9097;47.028;15.444;2024-02-21T08:43:10;2.23;;;1.40;;
17943;SDS011;9097;47.028;15.444;2024-02-21T08:46:13;4.13;;;2.03;;
17943;SDS011;9097;47.028;15.444;2024-02-21T08:49:16;4.43;;;2.00;;
17943;SDS011;9097;47.028;15.444;2024-02-21T08:52:18;1.93;;;1.27;;
17943;SDS011;9097;47.028;15.444;2024-02-21T08:55:20;3.37;;;1.73;;
17943;SDS011;9097;47.028;15.444;2024-02-21T08:58:22;3.37;;;2.30;;
17943;SDS011;9097;47.028;15.444;2024-02-21T09:01:28;2.27;;;1.70;;
17943;SDS011;9097;47.028;15.444;2024-02-21T09:04:30;3.77;;;1.70;;
17943;SDS011;9097;47.028;15.444;2024-02-21T09:07:33;5.20;;;1.93;;
17943;SDS011;9097;47.028;15.444;2024-02-21T09:10:35;4.57;;;2.10;;
17943;SDS011;9097;47.028;15.444;2024-02-21T09:13:38;1.90;;;1.10;;
17943;SDS011;9097;47.028;15.444;2024-02-21T09:16:42;2.13;;;1.57;;
17943;SDS011;9097;47.028;15.444;2024-02-21T09:19:45;2.83;;;1.73;;
17943;SDS011;9097;47.028;15.444;2024-02-21T09:22:48;1.97;;;1.40;;
17943;SDS011;9097;47.028;15.444;2024-02-21T09:25:50;2.00;;;1.20;;
17943;SDS011;9097;47.028;15.444;2024-02-21T09:28:53;3.03;;;0.93;;
17943;SDS011;9097;47.028;15.444;2024-02-21T09:31:57;2.10;;;1.20;;
17943;SDS011;9097;47.028;15.444;2024-02-21T09:34:59;1.93;;;1.37;;
17943;SDS011;9097;47.028;15.444;2024-02-21T09:38:03;2.03;;;1.07;;
17943;SDS011;9097;47.028;15.444;2024-02-21T09:41:08;1.60;;;1.03;;
17943;SDS011;9097;47.028;15.444;2024-02-21T09:44:13;2.90;;;1.17;;
17943;SDS011;9097;47.028;15.444;2024-02-21T09:47:19;3.33;;;1.00;;
17943;SDS011;9097;47.028;15.444;2024-02-21T09:50:24;1.33;;;1.20;;
17943;SDS011;9097;47.028;15.444;2024-02-21T09:53:28;3.17;;;1.53;;
17943;SDS011;9097;47.028;15.444;2024-02-21T09:56:32;0.87;;;0.77;;
17943;SDS011;9097;47.028;15.444;2024-02-21T09:59:37;2.07;;;0.73;;
17943;SDS011;9097;47.028;15.444;2024-02-21T10:02:43;1.07;;;0.90;;
17943;SDS011;9097;47.028;15.444;2024-02-21T10:05:47;0.87;;;0.77;;
17943;SDS011;9097;47.028;15.444;2024-02-21T10:08:51;0.97;;;0.80;;
17943;SDS011;9097;47.028;15.444;2024-02-21T10:11:54;0.50;;;0.50;;
17943;SDS011;9097;47.028;15.444;2024-02-21T10:15:00;0.80;;;0.77;;
17943;SDS011;9097;47.028;15.444;2024-02-21T10:18:05;1.80;;;1.00;;
17943;SDS011;9097;47.028;15.444;2024-02-21T10:21:08;1.90;;;0.60;;
17943;SDS011;9097;47.028;15.444;2024-02-21T10:24:11;1.67;;;1.20;;
17943;SDS011;9097;47.028;15.444;2024-02-21T10:27:14;3.50;;;0.80;;
17943;SDS011;9097;47.028;15.444;2024-02-21T10:30:16;2.80;;;1.10;;
17943;SDS011;9097;47.028;15.444;2024-02-21T10:33:21;1.93;;;1.40;;
17943;SDS011;9097;47.028;15.444;2024-02-21T10:36:26;2.40;;;1.10;;
17943;SDS011;9097;47.028;15.444;2024-02-21T10:39:28;1.17;;;0.70;;
17943;SDS011;9097;47.028;15.444;2024-02-21T10:42:31;1.70;;;1.00;;
17943;SDS011;9097;47.028;15.444;2024-02-21T10:45:35;3.53;;;1.43;;
17943;SDS011;9097;47.028;15.444;2024-02-21T10:48:42;4.10;;;0.97;;
17943;SDS011;9097;47.028;15.444;2024-02-21T10:51:45;1.90;;;1.10;;
17943;SDS011;9097;47.028;15.444;2024-02-21T10:54:49;1.73;;;0.97;;
17943;SDS011;9097;47.028;15.444;2024-02-21T10:57:53;5.23;;;1.63;;
17943;SDS011;9097;47.028;15.444;2024-02-21T11:00:56;2.20;;;1.10;;
17943;SDS011;9097;47.028;15.444;2024-02-21T11:04:01;3.10;;;1.17;;
17943;SDS011;9097;47.028;15.444;2024-02-21T11:07:04;1.37;;;1.03;;
17943;SDS011;9097;47.028;15.444;2024-02-21T11:10:20;2.60;;;1.63;;
17943;SDS011;9097;47.028;15.444;2024-02-21T11:13:30;4.53;;;1.13;;
17943;SDS011;9097;47.028;15.444;2024-02-21T11:16:36;1.60;;;1.17;;
17943;SDS011;9097;47.028;15.444;2024-02-21T11:19:41;1.40;;;1.13;;
17943;SDS011;9097;47.028;15.444;2024-02-21T11:22:44;1.80;;;0.80;;
17943;SDS011;9097;47.028;15.444;2024-02-21T11:25:48;0.80;;;0.60;;
17943;SDS011;9097;47.028;15.444;2024-02-21T11:28:56;1.00;;;0.90;;
17943;SDS011;9097;47.028;15.444;2024-02-21T11:31:59;2.23;;;0.90;;
17943;SDS011;9097;47.028;15.444;2024-02-21T11:35:06;1.33;;;0.80;;
17943;SDS011;9097;47.028;15.444;2024-02-21T11:38:09;3.50;;;0.80;;
17943;SDS011;9097;47.028;15.444;2024-02-21T11:41:14;1.63;;;1.10;;
17943;SDS011;9097;47.028;15.444;2024-02-21T11:44:17;1.17;;;0.80;;
17943;SDS011;9097;47.028;15.444;2024-02-21T11:47:19;0.63;;;0.50;;
17943;SDS011;9097;47.028;15.444;2024-02-21T11:50:23;3.97;;;1.17;;
17943;SDS011;9097;47.028;15.444;2024-02-21T11:53:26;2.20;;;0.73;;
17943;SDS011;9097;47.028;15.444;2024-02-21T11:56:31;1.33;;;0.70;;
17943;SDS011;9097;47.028;15.444;2024-02-21T11:59:34;1.20;;;0.50;;
17943;SDS011;9097;47.028;15.444;2024-02-21T12:02:36;0.47;;;0.47;;
17943;SDS011;9097;47.028;15.444;2024-02-21T12:05:40;1.73;;;1.13;;
17943;SDS011;9097;47.028;15.444;2024-02-21T12:08:43;0.67;;;0.60;;
17943;SDS011;9097;47.028;15.444;2024-02-21T12:11:45;2.30;;;0.67;;
17943;SDS011;9097;47.028;15.444;2024-02-21T12:14:53;0.80;;;0.67;;
17943;SDS011;9097;47.028;15.444;2024-02-21T12:17:56;1.00;;;0.33;;
17943;SDS011;9097;47.028;15.444;2024-02-21T12:21:01;0.57;;;0.57;;
17943;SDS011;9097;47.028;15.444;2024-02-21T12:24:11;0.37;;;0.30;;
17943;SDS011;9097;47.028;15.444;2024-02-21T12:27:14;0.20;;;0.20;;
17943;SDS011;9097;47.028;15.444;2024-02-21T12:30:17;3.03;;;0.77;;
17943;SDS011;9097;47.028;15.444;2024-02-21T12:33:20;2.00;;;0.70;;
17943;SDS011;9097;47.028;15.444;2024-02-21T12:36:25;1.07;;;0.33;;
17943;SDS011;9097;47.028;15.444;2024-02-21T12:39:27;0.50;;;0.47;;
17943;SDS011;9097;47.028;15.444;2024-02-21T12:42:31;0.67;;;0.30;;
17943;SDS011;9097;47.028;15.444;2024-02-21T12:45:33;1.03;;;0.40;;
17943;SDS011;9097;47.028;15.444;2024-02-21T12:48:36;0.60;;;0.30;;
17943;SDS011;9097;47.028;15.444;2024-02-21T12:51:40;1.00;;;0.40;;
17943;SDS011;9097;47.028;15.444;2024-02-21T12:54:43;0.40;;;0.30;;
17943;SDS011;9097;47.028;15.444;2024-02-21T12:57:45;0.73;;;0.40;;
17943;SDS011;9097;47.028;15.444;2024-02-21T13:00:48;0.90;;;0.60;;
17943;SDS011;9097;47.028;15.444;2024-02-21T13:03:50;0.93;;;0.30;;
17943;SDS011;9097;47.028;15.444;2024-02-21T13:06:56;0.67;;;0.33;;
17943;SDS011;9097;47.028;15.444;2024-02-21T13:09:58;2.00;;;0.73;;
17943;SDS011;9097;47.028;15.444;2024-02-21T13:13:00;0.87;;;0.43;;
17943;SDS011;9097;47.028;15.444;2024-02-21T13:16:04;0.20;;;0.20;;
17943;SDS011;9097;47.028;15.444;2024-02-21T13:19:06;1.30;;;0.40;;
17943;SDS011;9097;47.028;15.444;2024-02-21T13:22:11;0.20;;;0.20;;
17943;SDS011;9097;47.028;15.444;2024-02-21T13:25:14;1.17;;;0.70;;
17943;SDS011;9097;47.028;15.444;2024-02-21T13:28:20;0.73;;;0.33;;
17943;SDS011;9097;47.028;15.444;2024-02-21T13:31:22;0.40;;;0.40;;
17943;SDS011;9097;47.028;15.444;2024-02-21T13:34:25;0.30;;;0.30;;
17943;SDS011;9097;47.028;15.444;2024-02-21T13:37:29;0.50;;;0.20;;
17943;SDS011;9097;47.028;15.444;2024-02-21T13:40:32;0.50;;;0.50;;
17943;SDS011;9097;47.028;15.444;2024-02-21T13:43:35;0.23;;;0.20;;
17943;SDS011;9097;47.028;15.444;2024-02-21T13:46:38;0.50;;;0.50;;
17943;SDS011;9097;47.028;15.444;2024-02-21T13:49:40;0.47;;;0.27;;
17943;SDS011;9097;47.028;15.444;2024-02-21T13:52:44;1.20;;;0.50;;
17943;SDS011;9097;47.028;15.444;2024-02-21T13:55:47;0.60;;;0.50;;
17943;SDS011;9097;47.028;15.444;2024-02-21T13:58:49;0.10;;;0.10;;
17943;SDS011;9097;47.028;15.444;2024-02-21T14:01:52;0.60;;;0.50;;
17943;SDS011;9097;47.028;15.444;2024-02-21T14:04:54;0.93;;;0.43;;
17943;SDS011;9097;47.028;15.444;2024-02-21T14:07:58;1.10;;;0.40;;
17943;SDS011;9097;47.028;15.444;2024-02-21T14:11:01;1.67;;;0.80;;
17943;SDS011;9097;47.028;15.444;2024-02-21T14:14:04;1.90;;;0.53;;
17943;SDS011;9097;47.028;15.444;2024-02-21T14:17:06;1.40;;;0.73;;
17943;SDS011;9097;47.028;15.444;2024-02-21T14:20:09;0.87;;;0.60;;
17943;SDS011;9097;47.028;15.444;2024-02-21T14:23:15;0.77;;;0.33;;
17943;SDS011;9097;47.028;15.444;2024-02-21T14:26:18;0.60;;;0.40;;
17943;SDS011;9097;47.028;15.444;2024-02-21T14:29:22;0.57;;;0.20;;
17943;SDS011;9097;47.028;15.444;2024-02-21T14:32:24;1.03;;;0.40;;
17943;SDS011;9097;47.028;15.444;2024-02-21T14:35:27;1.27;;;0.40;;
17943;SDS011;9097;47.028;15.444;2024-02-21T14:38:31;2.60;;;0.67;;
17943;SDS011;9097;47.028;15.444;2024-02-21T14:41:36;0.67;;;0.30;;
17943;SDS011;9097;47.028;15.444;2024-02-21T14:44:40;1.80;;;0.83;;
17943;SDS011;9097;47.028;15.444;2024-02-21T14:47:42;0.60;;;0.43;;
17943;SDS011;9097;47.028;15.444;2024-02-21T14:50:45;0.27;;;0.27;;
17943;SDS011;9097;47.028;15.444;2024-02-21T14:53:49;0.70;;;0.47;;
17943;SDS011;9097;47.028;15.444;2024-02-21T14:56:51;0.90;;;0.43;;
17943;SDS011;9097;47.028;15.444;2024-02-21T14:59:54;1.03;;;0.30;;
17943;SDS011;9097;47.028;15.444;2024-02-21T15:02:59;1.40;;;0.60;;
17943;SDS011;9097;47.028;15.444;2024-02-21T15:06:02;0.30;;;0.30;;
17943;SDS011;9097;47.028;15.444;2024-02-21T15:09:06;0.47;;;0.33;;
17943;SDS011;9097;47.028;15.444;2024-02-21T15:12:09;0.40;;;0.30;;
17943;SDS011;9097;47.028;15.444;2024-02-21T15:15:11;0.30;;;0.13;;
17943;SDS011;9097;47.028;15.444;2024-02-21T15:18:14;0.23;;;0.23;;
17943;SDS011;9097;47.028;15.444;2024-02-21T15:21:16;0.67;;;0.40;;
17943;SDS011;9097;47.028;15.444;2024-02-21T15:24:20;0.40;;;0.40;;
17943;SDS011;9097;47.028;15.444;2024-02-21T15:27:23;2.23;;;0.23;;
17943;SDS011;9097;47.028;15.444;2024-02-21T15:30:26;0.70;;;0.50;;
17943;SDS011;9097;47.028;15.444;2024-02-21T15:33:32;1.63;;;0.30;;
17943;SDS011;9097;47.028;15.444;2024-02-21T15:36:34;0.37;;;0.37;;
17943;SDS011;9097;47.028;15.444;2024-02-21T15:39:38;0.57;;;0.30;;
17943;SDS011;9097;47.028;15.444;2024-02-21T15:42:40;1.03;;;0.30;;
17943;SDS011;9097;47.028;15.444;2024-02-21T15:45:43;1.07;;;0.30;;
17943;SDS011;9097;47.028;15.444;2024-02-21T15:48:45;0.90;;;0.40;;
17943;SDS011;9097;47.028;15.444;2024-02-21T15:51:52;0.90;;;0.40;;
17943;SDS011;9097;47.028;15.444;2024-02-21T15:54:57;0.43;;;0.40;;
17943;SDS011;9097;47.028;15.444;2024-02-21T15:57:59;0.43;;;0.30;;
17943;SDS011;9097;47.028;15.444;2024-02-21T16:01:05;1.13;;;0.50;;
17943;SDS011;9097;47.028;15.444;2024-02-21T16:04:11;0.30;;;0.30;;
17943;SDS011;9097;47.028;15.444;2024-02-21T16:07:14;1.90;;;0.67;;
17943;SDS011;9097;47.028;15.444;2024-02-21T16:10:20;0.60;;;0.50;;
17943;SDS011;9097;47.028;15.444;2024-02-21T16:13:22;0.60;;;0.47;;
17943;SDS011;9097;47.028;15.444;2024-02-21T16:16:24;0.90;;;0.43;;
17943;SDS011;9097;47.028;15.444;2024-02-21T16:19:27;0.43;;;0.43;;
17943;SDS011;9097;47.028;15.444;2024-02-21T16:22:29;0.63;;;0.40;;
17943;SDS011;9097;47.028;15.444;2024-02-21T16:25:33;1.27;;;0.90;;
17943;SDS011;9097;47.028;15.444;2024-02-21T16:28:36;0.40;;;0.30;;
17943;SDS011;9097;47.028;15.444;2024-02-21T16:31:39;2.33;;;0.63;;
17943;SDS011;9097;47.028;15.444;2024-02-21T16:34:41;0.77;;;0.57;;
17943;SDS011;9097;47.028;15.444;2024-02-21T16:37:44;4.47;;;1.47;;
17943;SDS011;9097;47.028;15.444;2024-02-21T16:40:49;4.77;;;1.70;;
17943;SDS011;9097;47.028;15.444;2024-02-21T16:43:52;3.00;;;1.37;;
17943;SDS011;9097;47.028;15.444;2024-02-21T16:46:55;3.53;;;1.00;;
17943;SDS011;9097;47.028;15.444;2024-02-21T16:49:57;0.90;;;0.70;;
17943;SDS011;9097;47.028;15.444;2024-02-21T16:53:00;3.07;;;1.33;;
17943;SDS011;9097;47.028;15.444;2024-02-21T16:56:05;4.83;;;1.27;;
17943;SDS011;9097;47.028;15.444;2024-02-21T16:59:08;3.17;;;0.93;;
17943;SDS011;9097;47.028;15.444;2024-02-21T17:02:10;2.73;;;1.17;;
17943;SDS011;9097;47.028;15.444;2024-02-21T17:05:13;16.17;;;2.30;;
17943;SDS011;9097;47.028;15.444;2024-02-21T17:08:16;4.50;;;1.53;;
17943;SDS011;9097;47.028;15.444;2024-02-21T17:11:20;1.63;;;1.10;;
17943;SDS011;9097;47.028;15.444;2024-02-21T17:14:23;3.40;;;1.47;;
17943;SDS011;9097;47.028;15.444;2024-02-21T17:17:26;2.00;;;1.10;;
17943;SDS011;9097;47.028;15.444;2024-02-21T17:20:29;4.77;;;1.60;;
17943;SDS011;9097;47.028;15.444;2024-02-21T17:23:32;5.43;;;1.80;;
17943;SDS011;9097;47.028;15.444;2024-02-21T17:26:37;4.90;;;2.00;;
17943;SDS011;9097;47.028;15.444;2024-02-21T17:29:39;7.33;;;2.50;;
17943;SDS011;9097;47.028;15.444;2024-02-21T17:32:41;7.93;;;2.17;;
17943;SDS011;9097;47.028;15.444;2024-02-21T17:35:44;5.13;;;1.97;;
17943;SDS011;9097;47.028;15.444;2024-02-21T17:38:48;5.90;;;1.93;;
17943;SDS011;9097;47.028;15.444;2024-02-21T17:41:52;5.97;;;1.83;;
17943;SDS011;9097;47.028;15.444;2024-02-21T17:44:56;3.47;;;1.63;;
17943;SDS011;9097;47.028;15.444;2024-02-21T17:47:59;2.97;;;2.20;;
17943;SDS011;9097;47.028;15.444;2024-02-21T17:51:01;4.23;;;1.73;;
17943;SDS011;9097;47.028;15.444;2024-02-21T17:54:04;2.90;;;1.70;;
17943;SDS011;9097;47.028;15.444;2024-02-21T17:57:08;5.73;;;2.50;;
17943;SDS011;9097;47.028;15.444;2024-02-21T18:00:11;4.23;;;1.70;;
17943;SDS011;9097;47.028;15.444;2024-02-21T18:03:16;4.93;;;1.87;;
17943;SDS011;9097;47.028;15.444;2024-02-21T18:06:21;3.90;;;2.37;;
17943;SDS011;9097;47.028;15.444;2024-02-21T18:09:23;3.30;;;2.17;;
17943;SDS011;9097;47.028;15.444;2024-02-21T18:12:27;2.93;;;1.47;;
17943;SDS011;9097;47.028;15.444;2024-02-21T18:15:30;1.40;;;1.13;;
17943;SDS011;9097;47.028;15.444;2024-02-21T18:18:33;12.77;;;3.20;;
17943;SDS011;9097;47.028;15.444;2024-02-21T18:21:35;7.73;;;2.07;;
17943;SDS011;9097;47.028;15.444;2024-02-21T18:24:38;4.60;;;2.37;;